sensor_id;sensor_type;location;lat;lon;timestamp;pressure;altitude;pressure_sealevel;temperature;humidity
76547;BME280;65390;53.014;8.886;2023-01-31T00:01:35;101849.16;;;4.00;100.00
76547;BME280;65390;53.014;8.886;2023-01-31T00:04:03;101850.13;;;3.96;100.00
76547;BME280;65390;53.014;8.886;2023-01-31T00:06:31;101859.66;;;4.05;100.00
76547;BME280;65390;53.014;8.886;2023-01-31T00:08:58;101863.94;;;4.10;100.00
76547;BME280;65390;53.014;8.886;2023-01-31T00:11:25;101862.28;;;4.06;100.00
76547;BME280;65390;53.014;8.886;2023-01-31T00:13:51;101861.38;;;4.07;100.00
76547;BME280;65390;53.014;8.886;2023-01-31T00:16:17;101855.34;;;4.01;100.00
76547;BME280;65390;53.014;8.886;2023-01-31T00:18:43;101863.91;;;4.13;100.00
76547;BME280;65390;53.014;8.886;2023-01-31T00:21:15;101841.00;;;4.08;100.00
76547;BME280;65390;53.014;8.886;2023-01-31T00:23:42;101836.69;;;4.04;100.00
76547;BME280;65390;53.014;8.886;2023-01-31T00:26:13;101836.91;;;3.93;100.00
76547;BME280;65390;53.014;8.886;2023-01-31T00:28:39;101834.34;;;3.90;100.00
76547;BME280;65390;53.014;8.886;2023-01-31T00:31:05;101846.66;;;3.92;100.00
76547;BME280;65390;53.014;8.886;2023-01-31T00:33:32;101833.63;;;3.83;100.00
76547;BME280;65390;53.014;8.886;2023-01-31T00:36:02;101848.78;;;3.75;100.00
76547;BME280;65390;53.014;8.886;2023-01-31T00:38:27;101846.25;;;3.71;100.00
76547;BME280;65390;53.014;8.886;2023-01-31T00:40:53;101846.44;;;3.61;100.00
76547;BME280;65390;53.014;8.886;2023-01-31T00:43:22;101849.13;;;3.60;100.00
76547;BME280;65390;53.014;8.886;2023-01-31T00:45:47;101859.53;;;3.69;100.00
76547;BME280;65390;53.014;8.886;2023-01-31T00:48:13;101861.25;;;3.72;100.00
76547;BME280;65390;53.014;8.886;2023-01-31T00:50:38;101865.84;;;3.63;100.00
76547;BME280;65390;53.014;8.886;2023-01-31T00:53:04;101849.13;;;3.60;100.00
76547;BME280;65390;53.014;8.886;2023-01-31T00:55:30;101867.69;;;3.60;100.00
76547;BME280;65390;53.014;8.886;2023-01-31T00:57:55;101839.78;;;3.42;100.00
76547;BME280;65390;53.014;8.886;2023-01-31T01:00:21;101859.88;;;3.52;100.00
76547;BME280;65390;53.014;8.886;2023-01-31T01:02:47;101847.75;;;3.39;100.00
76547;BME280;65390;53.014;8.886;2023-01-31T01:05:12;101860.78;;;3.51;100.00
76547;BME280;65390;53.014;8.886;2023-01-31T01:07:38;101852.97;;;3.45;100.00
76547;BME280;65390;53.014;8.886;2023-01-31T01:10:04;101851.13;;;3.49;100.00
76547;BME280;65390;53.014;8.886;2023-01-31T01:12:30;101866.69;;;3.66;100.00
76547;BME280;65390;53.014;8.886;2023-01-31T01:14:55;101860.50;;;3.65;100.00
76547;BME280;65390;53.014;8.886;2023-01-31T01:17:21;101853.59;;;3.56;100.00
76547;BME280;65390;53.014;8.886;2023-01-31T01:19:46;101863.09;;;3.68;100.00
76547;BME280;65390;53.014;8.886;2023-01-31T01:22:12;101855.06;;;3.71;100.00
76547;BME280;65390;53.014;8.886;2023-01-31T01:24:43;101853.16;;;3.79;100.00
76547;BME280;65390;53.014;8.886;2023-01-31T01:27:10;101867.34;;;3.75;100.00
76547;BME280;65390;53.014;8.886;2023-01-31T01:29:35;101850.72;;;3.69;100.00
76547;BME280;65390;53.014;8.886;2023-01-31T01:32:01;101845.63;;;3.59;100.00
76547;BME280;65390;53.014;8.886;2023-01-31T01:34:27;101852.47;;;3.70;100.00
76547;BME280;65390;53.014;8.886;2023-01-31T01:36:52;101862.91;;;3.77;100.00
76547;BME280;65390;53.014;8.886;2023-01-31T01:39:18;101861.81;;;3.87;100.00
76547;BME280;65390;53.014;8.886;2023-01-31T01:41:44;101846.75;;;3.88;100.00
76547;BME280;65390;53.014;8.886;2023-01-31T01:49:48;101861.88;;;3.84;100.00
76547;BME280;65390;53.014;8.886;2023-01-31T01:52:15;101865.56;;;3.76;100.00
76547;BME280;65390;53.014;8.886;2023-01-31T01:54:49;101866.50;;;3.73;100.00
76547;BME280;65390;53.014;8.886;2023-01-31T01:57:19;101874.56;;;3.69;100.00
76547;BME280;65390;53.014;8.886;2023-01-31T01:59:51;101874.50;;;3.72;100.00
76547;BME280;65390;53.014;8.886;2023-01-31T02:02:19;101877.88;;;3.80;100.00
76547;BME280;65390;53.014;8.886;2023-01-31T02:04:48;101871.22;;;3.60;100.00
76547;BME280;65390;53.014;8.886;2023-01-31T02:07:14;101900.97;;;3.73;100.00
76547;BME280;65390;53.014;8.886;2023-01-31T02:09:46;101880.91;;;3.61;100.00
76547;BME280;65390;53.014;8.886;2023-01-31T02:12:13;101886.28;;;3.57;100.00
76547;BME280;65390;53.014;8.886;2023-01-31T02:14:39;101905.50;;;3.68;100.00
76547;BME280;65390;53.014;8.886;2023-01-31T02:17:11;101895.94;;;3.61;100.00
76547;BME280;65390;53.014;8.886;2023-01-31T02:22:36;101901.09;;;3.67;100.00
76547;BME280;65390;53.014;8.886;2023-01-31T02:27:59;101916.75;;;3.81;100.00
76547;BME280;65390;53.014;8.886;2023-01-31T02:45:08;101902.34;;;3.92;100.00
76547;BME280;65390;53.014;8.886;2023-01-31T02:55:55;101885.41;;;4.00;100.00
76547;BME280;65390;53.014;8.886;2023-01-31T03:01:31;101892.50;;;3.99;100.00
76547;BME280;65390;53.014;8.886;2023-01-31T03:04:01;101888.00;;;4.03;100.00
76547;BME280;65390;53.014;8.886;2023-01-31T03:09:03;101868.94;;;3.84;100.00
76547;BME280;65390;53.014;8.886;2023-01-31T03:11:49;101859.25;;;3.83;100.00
76547;BME280;65390;53.014;8.886;2023-01-31T03:14:30;101888.50;;;3.80;100.00
76547;BME280;65390;53.014;8.886;2023-01-31T03:22:44;101843.19;;;3.89;100.00
76547;BME280;65390;53.014;8.886;2023-01-31T03:25:13;101845.94;;;3.86;100.00
76547;BME280;65390;53.014;8.886;2023-01-31T03:27:41;101846.09;;;3.77;100.00
76547;BME280;65390;53.014;8.886;2023-01-31T03:30:15;101850.34;;;3.85;100.00
76547;BME280;65390;53.014;8.886;2023-01-31T03:32:53;101846.16;;;3.75;100.00
76547;BME280;65390;53.014;8.886;2023-01-31T03:35:23;101851.72;;;3.63;100.00
76547;BME280;65390;53.014;8.886;2023-01-31T03:38:13;101848.25;;;3.58;100.00
76547;BME280;65390;53.014;8.886;2023-01-31T03:40:46;101855.31;;;3.60;100.00
76547;BME280;65390;53.014;8.886;2023-01-31T03:43:33;101859.03;;;3.50;100.00
76547;BME280;65390;53.014;8.886;2023-01-31T03:46:08;101857.59;;;3.34;100.00
76547;BME280;65390;53.014;8.886;2023-01-31T03:48:40;101853.19;;;3.33;100.00
76547;BME280;65390;53.014;8.886;2023-01-31T03:51:11;101836.53;;;3.28;100.00
76547;BME280;65390;53.014;8.886;2023-01-31T03:54:01;101865.41;;;3.42;100.00
76547;BME280;65390;53.014;8.886;2023-01-31T03:56:36;101857.66;;;3.31;100.00
76547;BME280;65390;53.014;8.886;2023-01-31T03:59:14;101852.66;;;3.14;100.00
76547;BME280;65390;53.014;8.886;2023-01-31T04:01:44;101854.41;;;3.15;100.00
76547;BME280;65390;53.014;8.886;2023-01-31T04:04:20;101864.84;;;3.23;100.00
76547;BME280;65390;53.014;8.886;2023-01-31T04:06:46;101870.16;;;3.24;100.00
76547;BME280;65390;53.014;8.886;2023-01-31T04:09:11;101837.78;;;3.09;100.00
76547;BME280;65390;53.014;8.886;2023-01-31T04:11:38;101831.06;;;2.89;100.00
76547;BME280;65390;53.014;8.886;2023-01-31T04:14:05;101850.16;;;3.07;100.00
76547;BME280;65390;53.014;8.886;2023-01-31T04:16:31;101846.66;;;3.04;100.00
76547;BME280;65390;53.014;8.886;2023-01-31T04:18:56;101864.44;;;2.98;100.00
76547;BME280;65390;53.014;8.886;2023-01-31T04:21:21;101861.75;;;2.99;100.00
76547;BME280;65390;53.014;8.886;2023-01-31T04:23:47;101882.00;;;3.02;100.00
76547;BME280;65390;53.014;8.886;2023-01-31T04:26:13;101865.31;;;2.98;100.00
76547;BME280;65390;53.014;8.886;2023-01-31T04:28:38;101859.91;;;3.03;100.00
76547;BME280;65390;53.014;8.886;2023-01-31T04:31:04;101867.91;;;3.00;100.00
76547;BME280;65390;53.014;8.886;2023-01-31T04:33:29;101854.91;;;2.88;100.00
76547;BME280;65390;53.014;8.886;2023-01-31T04:35:55;101866.19;;;2.99;100.00
76547;BME280;65390;53.014;8.886;2023-01-31T04:38:20;101838.16;;;2.87;100.00
76547;BME280;65390;53.014;8.886;2023-01-31T04:40:45;101879.31;;;3.03;100.00
76547;BME280;65390;53.014;8.886;2023-01-31T04:43:11;101866.81;;;3.13;100.00
76547;BME280;65390;53.014;8.886;2023-01-31T04:45:36;101842.25;;;3.03;100.00
76547;BME280;65390;53.014;8.886;2023-01-31T04:48:02;101842.91;;;3.16;100.00
76547;BME280;65390;53.014;8.886;2023-01-31T04:50:28;101858.63;;;3.27;100.00
76547;BME280;65390;53.014;8.886;2023-01-31T04:52:54;101846.06;;;3.37;100.00
76547;BME280;65390;53.014;8.886;2023-01-31T04:55:20;101847.09;;;3.29;100.00
76547;BME280;65390;53.014;8.886;2023-01-31T04:57:45;101827.69;;;3.27;100.00
76547;BME280;65390;53.014;8.886;2023-01-31T05:00:11;101831.97;;;3.34;100.00
76547;BME280;65390;53.014;8.886;2023-01-31T05:02:36;101845.94;;;3.43;100.00
76547;BME280;65390;53.014;8.886;2023-01-31T05:05:03;101825.94;;;3.28;100.00
76547;BME280;65390;53.014;8.886;2023-01-31T05:07:29;101822.38;;;3.29;100.00
76547;BME280;65390;53.014;8.886;2023-01-31T05:09:54;101820.63;;;3.28;100.00
76547;BME280;65390;53.014;8.886;2023-01-31T05:12:20;101828.59;;;3.26;100.00
76547;BME280;65390;53.014;8.886;2023-01-31T05:14:45;101807.44;;;3.25;100.00
76547;BME280;65390;53.014;8.886;2023-01-31T05:17:11;101820.59;;;3.29;100.00
76547;BME280;65390;53.014;8.886;2023-01-31T05:19:36;101844.41;;;3.31;100.00
76547;BME280;65390;53.014;8.886;2023-01-31T05:22:02;101801.50;;;3.12;100.00
76547;BME280;65390;53.014;8.886;2023-01-31T05:24:31;101799.78;;;3.10;100.00
76547;BME280;65390;53.014;8.886;2023-01-31T05:26:59;101810.09;;;3.25;100.00
76547;BME280;65390;53.014;8.886;2023-01-31T05:29:26;101812.66;;;3.29;100.00
76547;BME280;65390;53.014;8.886;2023-01-31T05:31:54;101804.13;;;3.14;100.00
76547;BME280;65390;53.014;8.886;2023-01-31T05:34:20;101824.13;;;3.30;100.00
76547;BME280;65390;53.014;8.886;2023-01-31T05:36:46;101808.31;;;3.25;100.00
76547;BME280;65390;53.014;8.886;2023-01-31T05:39:11;101807.34;;;3.29;100.00
76547;BME280;65390;53.014;8.886;2023-01-31T05:41:36;101810.13;;;3.23;100.00
76547;BME280;65390;53.014;8.886;2023-01-31T05:44:02;101799.56;;;3.20;100.00
76547;BME280;65390;53.014;8.886;2023-01-31T05:46:28;101809.06;;;3.32;100.00
76547;BME280;65390;53.014;8.886;2023-01-31T05:48:53;101803.00;;;3.27;100.00
76547;BME280;65390;53.014;8.886;2023-01-31T05:51:18;101790.75;;;3.20;100.00
76547;BME280;65390;53.014;8.886;2023-01-31T05:53:44;101792.47;;;3.22;100.00
76547;BME280;65390;53.014;8.886;2023-01-31T05:56:09;101800.97;;;3.38;100.00
76547;BME280;65390;53.014;8.886;2023-01-31T05:58:34;101797.56;;;3.33;100.00
76547;BME280;65390;53.014;8.886;2023-01-31T06:01:00;101796.78;;;3.28;100.00
76547;BME280;65390;53.014;8.886;2023-01-31T06:03:25;101774.88;;;3.18;100.00
76547;BME280;65390;53.014;8.886;2023-01-31T06:05:52;101790.63;;;3.27;100.00
76547;BME280;65390;53.014;8.886;2023-01-31T06:08:17;101790.59;;;3.29;100.00
76547;BME280;65390;53.014;8.886;2023-01-31T06:10:42;101793.00;;;3.40;100.00
76547;BME280;65390;53.014;8.886;2023-01-31T06:13:08;101778.09;;;3.34;100.00
76547;BME280;65390;53.014;8.886;2023-01-31T06:15:33;101791.31;;;3.36;100.00
76547;BME280;65390;53.014;8.886;2023-01-31T06:17:59;101796.44;;;3.45;100.00
76547;BME280;65390;53.014;8.886;2023-01-31T06:20:25;101796.47;;;3.43;100.00
76547;BME280;65390;53.014;8.886;2023-01-31T06:22:50;101774.50;;;3.37;100.00
76547;BME280;65390;53.014;8.886;2023-01-31T06:25:16;101790.88;;;3.57;100.00
76547;BME280;65390;53.014;8.886;2023-01-31T06:27:41;101768.31;;;3.38;100.00
76547;BME280;65390;53.014;8.886;2023-01-31T06:30:09;101763.84;;;3.41;100.00
76547;BME280;65390;53.014;8.886;2023-01-31T06:32:35;101768.78;;;3.56;100.00
76547;BME280;65390;53.014;8.886;2023-01-31T06:35:01;101748.75;;;3.45;100.00
76547;BME280;65390;53.014;8.886;2023-01-31T06:37:26;101760.88;;;3.55;100.00
76547;BME280;65390;53.014;8.886;2023-01-31T06:39:52;101749.53;;;3.48;100.00
76547;BME280;65390;53.014;8.886;2023-01-31T06:42:17;101754.66;;;3.56;100.00
76547;BME280;65390;53.014;8.886;2023-01-31T06:44:42;101749.38;;;3.56;100.00
76547;BME280;65390;53.014;8.886;2023-01-31T06:47:08;101735.34;;;3.51;100.00
76547;BME280;65390;53.014;8.886;2023-01-31T06:49:33;101723.84;;;3.52;100.00
76547;BME280;65390;53.014;8.886;2023-01-31T06:51:58;101714.16;;;3.51;100.00
76547;BME280;65390;53.014;8.886;2023-01-31T06:54:24;101723.66;;;3.61;100.00
76547;BME280;65390;53.014;8.886;2023-01-31T06:56:49;101727.97;;;3.65;100.00
76547;BME280;65390;53.014;8.886;2023-01-31T06:59:15;101726.81;;;3.77;100.00
76547;BME280;65390;53.014;8.886;2023-01-31T07:01:41;101704.72;;;3.78;100.00
76547;BME280;65390;53.014;8.886;2023-01-31T07:04:07;101702.06;;;3.78;100.00
76547;BME280;65390;53.014;8.886;2023-01-31T07:06:32;101683.59;;;3.73;100.00
76547;BME280;65390;53.014;8.886;2023-01-31T07:08:57;101674.81;;;3.71;100.00
76547;BME280;65390;53.014;8.886;2023-01-31T07:11:23;101710.69;;;3.86;100.00
76547;BME280;65390;53.014;8.886;2023-01-31T07:13:48;101683.50;;;3.76;100.00
76547;BME280;65390;53.014;8.886;2023-01-31T07:16:14;101683.56;;;3.75;100.00
76547;BME280;65390;53.014;8.886;2023-01-31T07:18:41;101673.81;;;3.75;100.00
76547;BME280;65390;53.014;8.886;2023-01-31T07:21:06;101678.09;;;3.82;100.00
76547;BME280;65390;53.014;8.886;2023-01-31T07:23:31;101683.28;;;3.87;100.00
76547;BME280;65390;53.014;8.886;2023-01-31T07:25:57;101670.09;;;3.84;100.00
76547;BME280;65390;53.014;8.886;2023-01-31T07:28:22;101682.31;;;3.89;100.00
76547;BME280;65390;53.014;8.886;2023-01-31T07:30:47;101665.59;;;3.87;100.00
76547;BME280;65390;53.014;8.886;2023-01-31T07:33:13;101670.94;;;3.86;100.00
76547;BME280;65390;53.014;8.886;2023-01-31T07:35:40;101665.41;;;3.93;100.00
76547;BME280;65390;53.014;8.886;2023-01-31T07:38:06;101653.94;;;3.93;100.00
76547;BME280;65390;53.014;8.886;2023-01-31T07:40:31;101664.94;;;4.13;100.00
76547;BME280;65390;53.014;8.886;2023-01-31T07:42:58;101651.00;;;4.05;100.00
76547;BME280;65390;53.014;8.886;2023-01-31T07:45:23;101666.66;;;4.16;100.00
76547;BME280;65390;53.014;8.886;2023-01-31T07:47:50;101651.69;;;4.12;100.00
76547;BME280;65390;53.014;8.886;2023-01-31T07:50:15;101650.66;;;4.19;100.00
76547;BME280;65390;53.014;8.886;2023-01-31T07:52:41;101649.88;;;4.15;100.00
76547;BME280;65390;53.014;8.886;2023-01-31T07:55:06;101639.34;;;4.11;100.00
76547;BME280;65390;53.014;8.886;2023-01-31T07:57:32;101639.22;;;4.17;100.00
76547;BME280;65390;53.014;8.886;2023-01-31T07:59:57;101649.47;;;4.29;100.00
76547;BME280;65390;53.014;8.886;2023-01-31T08:02:23;101617.81;;;4.23;100.00
76547;BME280;65390;53.014;8.886;2023-01-31T08:05:08;101618.50;;;4.31;100.00
76547;BME280;65390;53.014;8.886;2023-01-31T08:07:34;101623.81;;;4.30;100.00
76547;BME280;65390;53.014;8.886;2023-01-31T08:09:59;101622.16;;;4.25;100.00
76547;BME280;65390;53.014;8.886;2023-01-31T08:12:25;101607.84;;;4.33;100.00
76547;BME280;65390;53.014;8.886;2023-01-31T08:14:50;101583.38;;;4.21;100.00
76547;BME280;65390;53.014;8.886;2023-01-31T08:17:15;101590.81;;;4.40;100.00
76547;BME280;65390;53.014;8.886;2023-01-31T08:19:41;101583.72;;;4.40;100.00
76547;BME280;65390;53.014;8.886;2023-01-31T08:22:06;101581.06;;;4.40;100.00
76547;BME280;65390;53.014;8.886;2023-01-31T08:24:32;101568.78;;;4.38;100.00
76547;BME280;65390;53.014;8.886;2023-01-31T08:26:58;101571.28;;;4.42;100.00
76547;BME280;65390;53.014;8.886;2023-01-31T08:29:23;101563.06;;;4.51;100.00
76547;BME280;65390;53.014;8.886;2023-01-31T08:31:49;101551.09;;;4.37;100.00
76547;BME280;65390;53.014;8.886;2023-01-31T08:34:14;101572.69;;;4.55;100.00
76547;BME280;65390;53.014;8.886;2023-01-31T08:36:39;101541.22;;;4.42;100.00
76547;BME280;65390;53.014;8.886;2023-01-31T08:39:05;101522.66;;;4.42;100.00
76547;BME280;65390;53.014;8.886;2023-01-31T08:41:37;101500.91;;;4.29;100.00
76547;BME280;65390;53.014;8.886;2023-01-31T08:44:04;101522.06;;;4.32;100.00
76547;BME280;65390;53.014;8.886;2023-01-31T08:46:34;101530.47;;;4.46;100.00
76547;BME280;65390;53.014;8.886;2023-01-31T08:49:02;101507.44;;;4.47;100.00
76547;BME280;65390;53.014;8.886;2023-01-31T08:51:30;101515.38;;;4.48;100.00
76547;BME280;65390;53.014;8.886;2023-01-31T08:53:56;101523.31;;;4.50;100.00
76547;BME280;65390;53.014;8.886;2023-01-31T08:56:21;101512.59;;;4.53;100.00
76547;BME280;65390;53.014;8.886;2023-01-31T08:58:50;101515.25;;;4.53;100.00
76547;BME280;65390;53.014;8.886;2023-01-31T09:01:18;101504.94;;;4.42;100.00
76547;BME280;65390;53.014;8.886;2023-01-31T09:03:44;101498.75;;;4.42;100.00
76547;BME280;65390;53.014;8.886;2023-01-31T09:06:13;101511.69;;;4.54;100.00
76547;BME280;65390;53.014;8.886;2023-01-31T09:08:39;101521.19;;;4.61;100.00
76547;BME280;65390;53.014;8.886;2023-01-31T09:11:04;101496.72;;;4.51;100.00
76547;BME280;65390;53.014;8.886;2023-01-31T09:13:30;101493.31;;;4.46;100.00
76547;BME280;65390;53.014;8.886;2023-01-31T09:16:02;101519.25;;;4.68;100.00
76547;BME280;65390;53.014;8.886;2023-01-31T09:18:28;101504.31;;;4.64;100.00
76547;BME280;65390;53.014;8.886;2023-01-31T09:20:53;101504.25;;;4.65;100.00
76547;BME280;65390;53.014;8.886;2023-01-31T09:23:22;101499.03;;;4.62;100.00
76547;BME280;65390;53.014;8.886;2023-01-31T09:25:54;101517.22;;;4.76;100.00
76547;BME280;65390;53.014;8.886;2023-01-31T09:28:20;101487.66;;;4.59;100.00
76547;BME280;65390;53.014;8.886;2023-01-31T09:30:46;101490.03;;;4.68;100.00
76547;BME280;65390;53.014;8.886;2023-01-31T09:33:12;101481.72;;;4.78;100.00
76547;BME280;65390;53.014;8.886;2023-01-31T09:35:37;101487.81;;;4.82;100.00
76547;BME280;65390;53.014;8.886;2023-01-31T09:38:02;101466.91;;;4.71;100.00
76547;BME280;65390;53.014;8.886;2023-01-31T09:40:31;101490.47;;;4.82;100.00
76547;BME280;65390;53.014;8.886;2023-01-31T09:43:00;101473.56;;;4.84;100.00
76547;BME280;65390;53.014;8.886;2023-01-31T09:45:34;101496.38;;;4.92;100.00
76547;BME280;65390;53.014;8.886;2023-01-31T09:48:01;101482.06;;;4.96;100.00
76547;BME280;65390;53.014;8.886;2023-01-31T09:50:39;101469.16;;;4.85;100.00
76547;BME280;65390;53.014;8.886;2023-01-31T09:53:11;101465.63;;;4.83;100.00
76547;BME280;65390;53.014;8.886;2023-01-31T10:01:51;101456.63;;;4.89;100.00
76547;BME280;65390;53.014;8.886;2023-01-31T10:04:08;101471.22;;;5.03;100.00
76547;BME280;65390;53.014;8.886;2023-01-31T10:09:17;101433.38;;;4.95;100.00
76547;BME280;65390;53.014;8.886;2023-01-31T10:11:50;101439.69;;;4.93;100.00
76547;BME280;65390;53.014;8.886;2023-01-31T10:14:25;101440.38;;;4.98;100.00
76547;BME280;65390;53.014;8.886;2023-01-31T10:25:19;101443.81;;;5.01;100.00
76547;BME280;65390;53.014;8.886;2023-01-31T10:27:50;101415.56;;;4.99;100.00
76547;BME280;65390;53.014;8.886;2023-01-31T10:30:24;101418.28;;;4.97;100.00
76547;BME280;65390;53.014;8.886;2023-01-31T10:32:59;101402.16;;;5.02;100.00
76547;BME280;65390;53.014;8.886;2023-01-31T10:35:39;101384.81;;;4.92;100.00
76547;BME280;65390;53.014;8.886;2023-01-31T10:38:14;101402.16;;;5.03;100.00
76547;BME280;65390;53.014;8.886;2023-01-31T10:40:43;101411.91;;;5.03;100.00
76547;BME280;65390;53.014;8.886;2023-01-31T10:43:12;101428.44;;;5.11;100.00
76547;BME280;65390;53.014;8.886;2023-01-31T10:45:40;101404.81;;;5.03;100.00
76547;BME280;65390;53.014;8.886;2023-01-31T10:48:13;101403.63;;;5.12;100.00
76547;BME280;65390;53.014;8.886;2023-01-31T10:56:06;101376.22;;;5.10;100.00
76547;BME280;65390;53.014;8.886;2023-01-31T10:58:33;101390.50;;;5.07;100.00
76547;BME280;65390;53.014;8.886;2023-01-31T11:00:59;101389.88;;;5.26;100.00
76547;BME280;65390;53.014;8.886;2023-01-31T11:03:26;101378.72;;;5.14;100.00
76547;BME280;65390;53.014;8.886;2023-01-31T11:05:56;101400.66;;;5.21;100.00
76547;BME280;65390;53.014;8.886;2023-01-31T11:08:28;101389.81;;;5.27;100.00
76547;BME280;65390;53.014;8.886;2023-01-31T11:10:57;101370.66;;;5.18;100.00
76547;BME280;65390;53.014;8.886;2023-01-31T11:13:28;101351.78;;;5.25;100.00
76547;BME280;65390;53.014;8.886;2023-01-31T11:15:53;101354.41;;;5.27;100.00
76547;BME280;65390;53.014;8.886;2023-01-31T11:18:44;101369.03;;;5.38;100.00
76547;BME280;65390;53.014;8.886;2023-01-31T11:21:18;101356.81;;;5.33;100.00
76547;BME280;65390;53.014;8.886;2023-01-31T11:23:44;101342.84;;;5.28;100.00
76547;BME280;65390;53.014;8.886;2023-01-31T11:26:10;101349.56;;;5.38;100.00
76547;BME280;65390;53.014;8.886;2023-01-31T11:28:40;101349.19;;;5.49;100.00
76547;BME280;65390;53.014;8.886;2023-01-31T11:31:13;101351.03;;;5.46;100.00
76547;BME280;65390;53.014;8.886;2023-01-31T11:36:14;101335.31;;;5.40;100.00
76547;BME280;65390;53.014;8.886;2023-01-31T11:38:40;101347.56;;;5.44;100.00
76547;BME280;65390;53.014;8.886;2023-01-31T11:41:33;101343.47;;;5.59;100.00
76547;BME280;65390;53.014;8.886;2023-01-31T11:44:12;101331.31;;;5.52;100.00
76547;BME280;65390;53.014;8.886;2023-01-31T11:46:42;101327.78;;;5.52;100.00
76547;BME280;65390;53.014;8.886;2023-01-31T11:49:11;101313.69;;;5.50;100.00
76547;BME280;65390;53.014;8.886;2023-01-31T11:51:37;101308.19;;;5.54;100.00
76547;BME280;65390;53.014;8.886;2023-01-31T11:54:04;101320.47;;;5.58;100.00
76547;BME280;65390;53.014;8.886;2023-01-31T11:56:34;101313.25;;;5.62;100.00
76547;BME280;65390;53.014;8.886;2023-01-31T11:59:02;101312.50;;;5.58;100.00
76547;BME280;65390;53.014;8.886;2023-01-31T12:01:31;101324.75;;;5.62;100.00
76547;BME280;65390;53.014;8.886;2023-01-31T12:03:59;101296.81;;;5.51;100.00
76547;BME280;65390;53.014;8.886;2023-01-31T12:06:27;101331.38;;;5.74;100.00
76547;BME280;65390;53.014;8.886;2023-01-31T12:08:55;101320.88;;;5.71;100.00
76547;BME280;65390;53.014;8.886;2023-01-31T12:11:32;101305.78;;;5.71;100.00
76547;BME280;65390;53.014;8.886;2023-01-31T12:14:12;101293.53;;;5.67;100.00
76547;BME280;65390;53.014;8.886;2023-01-31T12:16:38;101290.00;;;5.67;100.00
76547;BME280;65390;53.014;8.886;2023-01-31T12:24:35;101293.56;;;5.89;100.00
76547;BME280;65390;53.014;8.886;2023-01-31T12:32:46;101295.91;;;5.98;100.00
76547;BME280;65390;53.014;8.886;2023-01-31T12:45:51;101314.97;;;6.10;100.00
76547;BME280;65390;53.014;8.886;2023-01-31T12:53:53;101286.34;;;6.16;100.00
76547;BME280;65390;53.014;8.886;2023-01-31T12:56:44;101285.03;;;6.26;100.00
76547;BME280;65390;53.014;8.886;2023-01-31T12:59:41;101299.78;;;6.35;100.00
76547;BME280;65390;53.014;8.886;2023-01-31T13:05:27;101271.78;;;6.25;100.00
76547;BME280;65390;53.014;8.886;2023-01-31T13:08:13;101263.75;;;6.26;100.00
76547;BME280;65390;53.014;8.886;2023-01-31T13:11:12;101277.34;;;6.41;100.00
76547;BME280;65390;53.014;8.886;2023-01-31T13:13:45;101262.59;;;6.33;100.00
76547;BME280;65390;53.014;8.886;2023-01-31T13:16:12;101275.50;;;6.43;100.00
76547;BME280;65390;53.014;8.886;2023-01-31T13:18:42;101254.47;;;6.36;100.00
76547;BME280;65390;53.014;8.886;2023-01-31T13:21:12;101253.03;;;6.28;100.00
76547;BME280;65390;53.014;8.886;2023-01-31T13:23:45;101247.09;;;6.21;100.00
76547;BME280;65390;53.014;8.886;2023-01-31T13:26:18;101244.31;;;6.24;100.00
76547;BME280;65390;53.014;8.886;2023-01-31T13:28:50;101230.41;;;6.18;100.00
76547;BME280;65390;53.014;8.886;2023-01-31T13:31:24;101246.25;;;6.21;100.00
76547;BME280;65390;53.014;8.886;2023-01-31T13:34:18;101234.00;;;6.17;100.00
76547;BME280;65390;53.014;8.886;2023-01-31T13:37:19;101247.16;;;6.42;100.00
76547;BME280;65390;53.014;8.886;2023-01-31T13:39:38;101249.88;;;6.40;100.00
76547;BME280;65390;53.014;8.886;2023-01-31T13:42:05;101249.94;;;6.39;100.00
76547;BME280;65390;53.014;8.886;2023-01-31T13:44:32;101235.75;;;6.38;100.00
76547;BME280;65390;53.014;8.886;2023-01-31T13:47:19;101243.97;;;6.54;100.00
76547;BME280;65390;53.014;8.886;2023-01-31T13:49:56;101246.22;;;6.63;100.00
76547;BME280;65390;53.014;8.886;2023-01-31T13:54:59;101245.78;;;6.53;100.00
76547;BME280;65390;53.014;8.886;2023-01-31T13:57:31;101218.22;;;6.54;100.00
76547;BME280;65390;53.014;8.886;2023-01-31T14:03:21;101224.34;;;6.56;100.00
76547;BME280;65390;53.014;8.886;2023-01-31T14:05:58;101195.50;;;6.46;100.00
76547;BME280;65390;53.014;8.886;2023-01-31T14:10:55;101218.34;;;6.51;100.00
76547;BME280;65390;53.014;8.886;2023-01-31T14:13:58;101215.56;;;6.54;100.00
76547;BME280;65390;53.014;8.886;2023-01-31T14:16:40;101241.31;;;6.74;100.00
76547;BME280;65390;53.014;8.886;2023-01-31T14:21:54;101218.88;;;6.59;100.00
76547;BME280;65390;53.014;8.886;2023-01-31T14:27:20;101213.63;;;6.58;100.00
76547;BME280;65390;53.014;8.886;2023-01-31T14:32:47;101218.22;;;6.75;100.00
76547;BME280;65390;53.014;8.886;2023-01-31T14:40:38;101219.22;;;6.72;100.00
76547;BME280;65390;53.014;8.886;2023-01-31T14:48:41;101232.25;;;6.78;100.00
76547;BME280;65390;53.014;8.886;2023-01-31T14:51:19;101240.47;;;6.94;100.00
76547;BME280;65390;53.014;8.886;2023-01-31T14:56:53;101233.59;;;7.09;100.00
76547;BME280;65390;53.014;8.886;2023-01-31T14:59:24;101220.88;;;6.95;100.00
76547;BME280;65390;53.014;8.886;2023-01-31T15:01:51;101241.59;;;7.09;100.00
76547;BME280;65390;53.014;8.886;2023-01-31T15:04:21;101222.44;;;7.01;100.00
76547;BME280;65390;53.014;8.886;2023-01-31T15:06:50;101235.91;;;7.16;100.00
76547;BME280;65390;53.014;8.886;2023-01-31T15:11:56;101211.97;;;7.15;100.00
76547;BME280;65390;53.014;8.886;2023-01-31T15:16:57;101194.34;;;7.12;100.00